Hlavní strana
METAR-TAF:

METAR-TAF

Letiště :

Jämsä, Finsko

zeměpisná šířka: 61-51N, zeměpisná délka: 024-48E, výška: 143 m

Aktuální stav počasí

Zpráva byla vytvořena před 21 minutami, v 10:50 UTC
Východojihovýchodní vítr 7 kt, proměnlivý mezi východoseverovýchodním a jihojihovýchodním
Teplota 19°C
Vlhkost vzduchu 40%
Tlak 1006 hPa
Viditelnost 10 km a více
Žádná oblačnost pod 1500 m, nevyskytují se cumulonimby.

METAR: EFHA 041050Z 11007KT 070V160 CAVOK 19/05 Q1006

Čas: 14:11 (11:11 UTC)

Předpověď počasí

Zpráva byla vytvořena před 2 hodinami a 40 minutami, v 08:31 UTC
Předpověď platná od 04 v 09 UTC do 04 v 13 UTC
Východní vítr 9 kt
Viditelnost 10 km a více
Žádná oblačnost pod 1500 m, nevyskytují se cumulonimby.
Pravděpodobnost 30%
od 04 v 11 UTC do 04 v 13 UTC
Polojasno ve výšce 5000 ft, Vertikální cumulus.

TAF: EFHA 040831Z 0409/0413 08009KT CAVOK PROB30 0411/0413 SCT050TCU

Stav a předpovědi počasí z více než 4 000 letišť (zprávy METAR a TAF).

Červené a žluté tečky na mapě představují dostupné meteorologické stanice.

Když kurzor umístíte na tečku, zobrazí se název stanice.

Pak kliknutím zobrazíte stav a předpověď počasí.

Chcete-li změnit mapu, kliknutím na zelené tlačítko se znaménkem +mapu přiblížíte, kliknutím na zelené tlačítko se znaménkem – mapu oddálíte a kliknutím na zelené šipky přejdete na sousední mapy.


METAR-TAF: